createdAt,value
2018-06-23T00:00:50.920Z,61.81
2018-06-23T00:03:19.732Z,61.73
2018-06-23T00:05:48.452Z,59.88
2018-06-23T00:08:17.104Z,61.34
2018-06-23T00:10:45.870Z,61.56
2018-06-23T00:13:14.459Z,61.62
2018-06-23T00:15:43.183Z,61.75
2018-06-23T00:18:11.849Z,61.69
2018-06-23T00:20:40.580Z,59.87
2018-06-23T00:23:09.248Z,61.31
2018-06-23T00:25:38.027Z,61.80
2018-06-23T00:28:06.693Z,62.00
2018-06-23T00:30:35.443Z,62.23
2018-06-23T00:33:04.099Z,62.46
2018-06-23T00:35:32.815Z,62.68
2018-06-23T00:38:01.454Z,63.01
2018-06-23T00:40:30.174Z,62.96
2018-06-23T00:42:58.832Z,63.21
2018-06-23T00:45:27.597Z,63.38
2018-06-23T00:47:56.312Z,63.26
2018-06-23T00:50:25.026Z,63.06
2018-06-23T00:52:53.697Z,62.95
2018-06-23T00:55:22.377Z,60.67
2018-06-23T00:57:51.047Z,62.03
2018-06-23T01:00:19.769Z,62.09
2018-06-23T01:02:48.460Z,62.09
2018-06-23T01:05:17.198Z,62.17
2018-06-23T01:07:46.226Z,59.94
2018-06-23T01:10:15.088Z,59.40
2018-06-23T01:12:43.750Z,58.80
2018-06-23T01:15:12.501Z,60.63
2018-06-23T01:17:41.165Z,60.99
2018-06-23T01:20:09.935Z,58.82
2018-06-23T01:22:38.781Z,58.24
2018-06-23T01:25:07.473Z,60.01
2018-06-23T01:27:36.128Z,60.62
2018-06-23T01:30:04.866Z,60.94
2018-06-23T01:32:36.464Z,61.13
2018-06-23T01:35:05.142Z,58.97
2018-06-23T01:37:33.821Z,60.34
2018-06-23T01:40:02.525Z,60.71
2018-06-23T01:42:31.241Z,60.75
2018-06-23T01:44:59.893Z,60.79
2018-06-23T01:47:28.691Z,60.82
2018-06-23T01:49:57.299Z,61.12
2018-06-23T01:52:25.979Z,60.80
2018-06-23T01:54:54.623Z,60.80
2018-06-23T01:57:23.571Z,60.88
2018-06-23T01:59:52.196Z,60.76
2018-06-23T02:02:23.641Z,60.90
2018-06-23T02:04:52.341Z,60.95
2018-06-23T02:07:21.049Z,58.85
2018-06-23T02:09:49.750Z,57.99
2018-06-23T02:12:18.429Z,57.53
2018-06-23T02:14:47.095Z,57.29
2018-06-23T02:17:33.994Z,56.97
2018-06-23T02:20:20.472Z,59.29
2018-06-23T02:22:54.992Z,60.05
2018-06-23T02:25:26.338Z,60.48
2018-06-23T02:27:55.276Z,60.76
2018-06-23T02:30:26.725Z,60.92
2018-06-23T02:32:55.448Z,61.11
2018-06-23T02:35:24.134Z,61.22
2018-06-23T02:37:52.823Z,61.30
2018-06-23T02:40:21.566Z,61.48
2018-06-23T02:42:50.352Z,61.47
2018-06-23T02:45:19.322Z,59.52
2018-06-23T02:47:48.014Z,61.04
2018-06-23T02:50:16.665Z,61.37
2018-06-23T02:52:45.360Z,61.83
2018-06-23T02:55:14.060Z,62.06
2018-06-23T02:57:42.756Z,62.32
2018-06-23T03:00:11.447Z,62.75
2018-06-23T03:02:40.134Z,62.98
2018-06-23T03:05:08.968Z,63.19
2018-06-23T03:07:37.735Z,63.73
2018-06-23T03:10:06.387Z,63.64
2018-06-23T03:12:40.274Z,61.44
2018-06-23T03:15:08.922Z,63.17
2018-06-23T03:17:37.729Z,63.55
2018-06-23T03:20:06.428Z,63.64
2018-06-23T03:22:35.306Z,63.94
2018-06-23T03:25:04.037Z,64.09
2018-06-23T03:27:32.749Z,64.17
2018-06-23T03:30:01.427Z,64.12
2018-06-23T03:32:30.125Z,64.33
2018-06-23T03:34:58.822Z,64.52
2018-06-23T03:37:27.516Z,64.43
2018-06-23T03:39:56.180Z,64.49
2018-06-23T03:42:24.855Z,64.55
2018-06-23T03:44:53.577Z,64.71
2018-06-23T03:47:22.391Z,64.79
2018-06-23T03:49:51.078Z,64.81
2018-06-23T03:52:19.801Z,64.83
2018-06-23T03:54:48.501Z,64.93
2018-06-23T03:57:17.244Z,64.84
2018-06-23T03:59:45.877Z,62.67
2018-06-23T04:02:14.576Z,64.07
2018-06-23T04:04:43.257Z,64.46
2018-06-23T04:07:11.945Z,64.32
2018-06-23T04:09:40.593Z,64.18
2018-06-23T04:12:09.293Z,63.93
2018-06-23T04:14:37.947Z,63.61
2018-06-23T04:17:06.669Z,63.29
2018-06-23T04:19:35.407Z,63.01
2018-06-23T04:22:04.158Z,63.00
2018-06-23T04:24:32.818Z,62.73
2018-06-23T04:27:01.564Z,62.78
2018-06-23T04:29:30.213Z,62.65
2018-06-23T04:31:58.919Z,62.63
2018-06-23T04:34:27.577Z,62.31
2018-06-23T04:36:56.294Z,62.09
2018-06-23T04:39:24.976Z,58.89
2018-06-23T04:41:53.712Z,60.82
2018-06-23T04:44:22.355Z,61.14
2018-06-23T04:46:51.030Z,61.38
2018-06-23T04:49:19.789Z,61.44
2018-06-23T04:51:48.493Z,57.85
2018-06-23T04:54:17.152Z,59.91
2018-06-23T04:56:45.851Z,60.44
2018-06-23T04:59:14.518Z,60.87
2018-06-23T05:01:43.242Z,60.91
2018-06-23T05:04:11.882Z,60.67
2018-06-23T05:06:40.564Z,60.46
2018-06-23T05:09:09.295Z,60.42
2018-06-23T05:11:38.003Z,60.29
2018-06-23T05:14:06.700Z,56.62
2018-06-23T05:16:35.398Z,58.72
2018-06-23T05:19:04.151Z,59.18
2018-06-23T05:21:32.802Z,59.12
2018-06-23T05:24:01.899Z,59.01
2018-06-23T05:26:30.667Z,58.94
2018-06-23T05:28:59.363Z,59.04
2018-06-23T05:31:28.023Z,58.96
2018-06-23T05:33:56.737Z,58.89
2018-06-23T05:36:25.405Z,58.41
2018-06-23T05:38:54.150Z,58.66
2018-06-23T05:41:24.917Z,58.69
2018-06-23T05:43:53.619Z,58.60
2018-06-23T05:46:22.416Z,55.16
2018-06-23T05:48:51.160Z,57.26
2018-06-23T05:51:19.851Z,58.20
2018-06-23T05:53:48.569Z,58.73
2018-06-23T05:56:17.247Z,59.37
2018-06-23T05:58:45.968Z,59.43
2018-06-23T06:01:14.712Z,59.63
2018-06-23T06:03:43.405Z,60.00
2018-06-23T06:06:12.585Z,60.15
2018-06-23T06:08:41.315Z,60.11
2018-06-23T06:11:09.963Z,60.12
2018-06-23T06:13:38.779Z,60.54
2018-06-23T06:16:07.472Z,60.29
2018-06-23T06:18:36.118Z,60.19
2018-06-23T06:21:07.505Z,60.39
2018-06-23T06:23:36.171Z,60.45
2018-06-23T06:26:04.855Z,60.88
2018-06-23T06:28:33.563Z,61.76
2018-06-23T06:31:02.227Z,62.79
2018-06-23T06:33:30.950Z,63.44
2018-06-23T06:35:59.588Z,63.88
2018-06-23T06:38:28.323Z,64.21
2018-06-23T06:40:56.975Z,64.75
2018-06-23T06:43:25.853Z,63.50
2018-06-23T06:45:54.476Z,65.28
2018-06-23T06:48:23.601Z,66.16
2018-06-23T06:50:52.449Z,67.06
2018-06-23T06:53:21.509Z,68.09
2018-06-23T06:55:50.210Z,68.28
2018-06-23T06:58:19.182Z,69.02
2018-06-23T07:00:49.453Z,67.90
2018-06-23T07:03:18.599Z,69.27
2018-06-23T07:05:47.260Z,69.80
2018-06-23T07:08:16.240Z,69.84
2018-06-23T07:10:44.916Z,70.80
2018-06-23T07:13:14.051Z,71.17
2018-06-23T07:15:42.743Z,71.46
2018-06-23T07:18:13.074Z,71.35
2018-06-23T07:20:42.111Z,70.38
2018-06-23T07:23:10.802Z,69.17
2018-06-23T07:25:39.584Z,68.13
2018-06-23T07:28:08.823Z,71.16
2018-06-23T07:30:37.512Z,69.76
2018-06-23T07:33:10.399Z,71.84
2018-06-23T07:35:39.081Z,72.74
2018-06-23T07:38:07.930Z,70.55
2018-06-23T07:40:36.720Z,72.18
2018-06-23T07:43:05.368Z,72.66
2018-06-23T07:45:34.020Z,70.75
2018-06-23T07:48:04.952Z,69.86
2018-06-23T07:50:33.198Z,72.03
2018-06-23T07:53:01.884Z,73.11
2018-06-23T07:55:30.610Z,73.32
2018-06-23T07:57:59.643Z,71.55
2018-06-23T08:00:28.357Z,73.43
2018-06-23T08:02:56.981Z,74.56
2018-06-23T08:05:25.868Z,75.01
2018-06-23T08:07:54.575Z,75.38
2018-06-23T08:10:23.328Z,72.90
2018-06-23T08:12:52.008Z,74.29
2018-06-23T08:15:20.763Z,74.92
2018-06-23T08:17:49.455Z,75.09
2018-06-23T08:20:18.209Z,75.38
2018-06-23T08:22:46.891Z,75.75
2018-06-23T08:25:15.631Z,76.21
2018-06-23T08:27:44.504Z,76.39
2018-06-23T08:30:13.539Z,76.70
2018-06-23T08:32:57.949Z,76.49
2018-06-23T08:35:26.670Z,76.47
2018-06-23T08:37:55.388Z,76.48
2018-06-23T08:40:24.411Z,76.38
2018-06-23T08:42:53.165Z,76.28
2018-06-23T08:45:22.060Z,76.34
2018-06-23T08:47:50.671Z,76.24
2018-06-23T08:50:19.449Z,76.28
2018-06-23T08:52:48.488Z,76.30
2018-06-23T08:55:17.330Z,73.92
2018-06-23T08:57:46.034Z,75.75
2018-06-23T09:00:14.747Z,76.36
2018-06-23T09:02:43.479Z,76.91
2018-06-23T09:05:12.332Z,74.74
2018-06-23T09:07:41.116Z,76.04
2018-06-23T09:10:09.850Z,76.81
2018-06-23T09:12:38.536Z,77.21
2018-06-23T09:15:07.243Z,77.22
2018-06-23T09:17:36.007Z,76.64
2018-06-23T09:20:04.877Z,76.64
2018-06-23T09:22:33.668Z,76.15
2018-06-23T09:25:02.474Z,76.34
2018-06-23T09:27:31.534Z,76.27
2018-06-23T09:30:00.347Z,76.40
2018-06-23T09:32:29.180Z,76.64
2018-06-23T09:34:58.189Z,76.47
2018-06-23T09:37:26.916Z,75.77
2018-06-23T09:39:58.027Z,75.13
2018-06-23T09:42:27.019Z,75.31
2018-06-23T09:44:55.868Z,74.82
2018-06-23T09:47:24.615Z,74.29
2018-06-23T09:52:41.491Z,74.15
2018-06-23T09:55:10.676Z,74.31
2018-06-23T09:57:40.069Z,74.31
2018-06-23T10:00:09.298Z,74.04
2018-06-23T10:02:38.521Z,74.15
2018-06-23T10:05:11.877Z,73.44
2018-06-23T10:07:41.135Z,73.49
2018-06-23T10:10:11.336Z,73.38
2018-06-23T10:12:43.007Z,73.04
2018-06-23T10:15:12.078Z,72.91
2018-06-23T10:17:41.432Z,73.30
2018-06-23T10:20:10.232Z,73.19
2018-06-23T10:22:39.528Z,73.23
2018-06-23T10:25:12.066Z,73.61
2018-06-23T10:27:41.076Z,73.19
2018-06-23T10:30:10.374Z,73.12
2018-06-23T10:32:39.115Z,73.17
2018-06-23T10:35:08.445Z,73.46
2018-06-23T10:37:37.509Z,73.26
2018-06-23T10:40:06.946Z,72.42
2018-06-23T10:42:35.828Z,68.75
2018-06-23T10:45:04.770Z,65.46
2018-06-23T10:47:33.778Z,68.79
2018-06-23T10:50:03.595Z,68.95
2018-06-23T10:52:32.448Z,68.63
2018-06-23T10:57:52.123Z,68.29
2018-06-23T11:00:24.892Z,67.71
2018-06-23T11:02:54.908Z,66.86
2018-06-23T11:05:25.938Z,66.92
2018-06-23T11:07:57.868Z,63.73
2018-06-23T11:10:26.940Z,65.87
2018-06-23T11:12:56.085Z,60.98
2018-06-23T11:15:25.437Z,62.84
2018-06-23T11:17:57.675Z,62.33
2018-06-23T11:20:27.064Z,61.67
2018-06-23T11:22:56.609Z,54.31
2018-06-23T11:25:26.824Z,57.42
2018-06-23T11:27:57.413Z,58.46
2018-06-23T11:30:26.434Z,57.48
2018-06-23T11:32:55.556Z,50.81
2018-06-23T11:35:28.065Z,53.07
2018-06-23T11:37:57.081Z,46.85
2018-06-23T11:40:25.964Z,46.65
2018-06-23T11:42:54.656Z,47.05
2018-06-23T11:45:23.415Z,50.91
2018-06-23T11:47:52.130Z,52.67
2018-06-23T11:50:20.834Z,53.50
2018-06-23T11:52:49.638Z,48.08
2018-06-23T11:55:21.232Z,49.87
2018-06-23T11:57:50.310Z,50.45
2018-06-23T12:00:22.193Z,45.09
2018-06-23T12:02:51.110Z,49.40
2018-06-23T12:05:20.242Z,51.05
2018-06-23T12:07:49.284Z,51.96
2018-06-23T12:10:18.194Z,52.89
2018-06-23T12:12:50.507Z,49.75
2018-06-23T12:15:21.717Z,52.84
2018-06-23T12:17:51.047Z,53.64
2018-06-23T12:20:19.887Z,54.11
2018-06-23T12:22:59.617Z,54.55
2018-06-23T12:25:28.391Z,54.65
2018-06-23T12:27:57.174Z,54.55
2018-06-23T12:30:25.873Z,54.75
2018-06-23T12:32:54.554Z,54.78
2018-06-23T12:35:23.272Z,54.87
2018-06-23T12:37:51.933Z,54.92
2018-06-23T12:40:20.601Z,54.52
2018-06-23T12:42:49.280Z,53.79
2018-06-23T12:45:18.182Z,53.16
2018-06-23T12:47:46.877Z,52.83
2018-06-23T12:50:15.553Z,52.96
2018-06-23T12:52:44.292Z,53.06
2018-06-23T12:55:13.239Z,52.81
2018-06-23T12:57:41.968Z,49.01
2018-06-23T13:00:10.611Z,51.77
2018-06-23T13:02:39.303Z,52.72
2018-06-23T13:05:08.300Z,53.11
2018-06-23T13:07:39.057Z,53.28
2018-06-23T13:10:08.028Z,53.77
2018-06-23T13:12:37.133Z,54.00
2018-06-23T13:15:06.167Z,50.59
2018-06-23T13:17:35.252Z,53.05
2018-06-23T13:20:03.922Z,53.27
2018-06-23T13:22:33.141Z,49.64
2018-06-23T13:25:03.091Z,52.00
2018-06-23T13:27:32.186Z,52.82
2018-06-23T13:30:01.253Z,52.90
2018-06-23T13:32:30.576Z,52.98
2018-06-23T13:34:59.348Z,53.02
2018-06-23T13:37:28.639Z,52.97
2018-06-23T13:40:00.933Z,53.19
2018-06-23T13:42:30.031Z,53.26
2018-06-23T13:44:58.977Z,53.73
2018-06-23T13:47:31.441Z,53.62
2018-06-23T13:50:00.428Z,53.60
2018-06-23T13:52:31.905Z,53.49
2018-06-23T13:55:00.983Z,53.26
2018-06-23T13:57:31.016Z,53.20
2018-06-23T13:59:59.861Z,53.03
2018-06-23T14:02:28.980Z,49.23
2018-06-23T14:04:57.848Z,48.03
2018-06-23T14:07:26.919Z,50.57
2018-06-23T14:09:55.751Z,51.16
2018-06-23T14:12:24.445Z,51.18
2018-06-23T14:14:53.238Z,47.35
2018-06-23T14:17:21.958Z,49.36
2018-06-23T14:19:50.741Z,49.35
2018-06-23T14:22:19.446Z,49.68
2018-06-23T14:24:48.134Z,49.12
2018-06-23T14:27:16.829Z,45.17
2018-06-23T14:29:45.523Z,47.54
2018-06-23T14:32:14.227Z,48.10
2018-06-23T14:34:42.893Z,48.35
2018-06-23T14:37:11.610Z,48.71
2018-06-23T14:39:40.373Z,49.04
2018-06-23T14:42:09.469Z,49.49
2018-06-23T14:44:38.562Z,49.65
2018-06-23T14:47:07.783Z,49.98
2018-06-23T14:49:37.017Z,50.09
2018-06-23T14:52:06.530Z,50.54
2018-06-23T14:54:35.194Z,47.51
2018-06-23T14:57:03.892Z,50.11
2018-06-23T14:59:32.693Z,50.77
2018-06-23T15:02:01.894Z,51.14
2018-06-23T15:04:31.313Z,51.35
2018-06-23T15:07:00.052Z,51.57
2018-06-23T15:09:38.030Z,51.53
2018-06-23T15:12:44.771Z,51.71
2018-06-23T15:15:13.941Z,51.85
2018-06-23T15:17:43.181Z,51.74
2018-06-23T15:20:12.183Z,51.93
2018-06-23T15:22:40.881Z,52.36
2018-06-23T15:25:10.333Z,52.34
2018-06-23T15:27:39.082Z,52.49
2018-06-23T15:30:09.502Z,52.52
2018-06-23T15:32:38.228Z,52.49
2018-06-23T15:35:06.948Z,49.49
2018-06-23T15:37:35.786Z,51.48
2018-06-23T15:40:04.490Z,51.91
2018-06-23T15:42:33.177Z,52.32
2018-06-23T15:45:01.969Z,52.66
2018-06-23T15:47:31.164Z,50.15
2018-06-23T15:50:01.269Z,52.41
2018-06-23T15:52:30.071Z,50.22
2018-06-23T15:54:59.220Z,49.73
2018-06-23T15:57:28.374Z,52.19
2018-06-23T15:59:57.419Z,52.80
2018-06-23T16:02:26.181Z,53.15
2018-06-23T16:04:54.926Z,53.41
2018-06-23T16:07:23.618Z,53.32
2018-06-23T16:09:52.315Z,50.34
2018-06-23T16:12:21.047Z,52.84
2018-06-23T16:14:52.177Z,53.45
2018-06-23T16:17:20.852Z,53.79
2018-06-23T16:19:49.519Z,51.21
2018-06-23T16:22:18.239Z,53.53
2018-06-23T16:24:46.968Z,54.13
2018-06-23T16:27:15.776Z,51.30
2018-06-23T16:29:44.426Z,53.67
2018-06-23T16:32:13.140Z,54.17
2018-06-23T16:34:42.420Z,51.46
2018-06-23T16:37:11.036Z,53.82
2018-06-23T16:39:44.109Z,54.35
2018-06-23T16:42:12.810Z,54.79
2018-06-23T16:44:41.469Z,51.88
2018-06-23T16:47:10.108Z,51.41
2018-06-23T16:49:38.792Z,53.98
2018-06-23T16:52:07.472Z,54.90
2018-06-23T16:54:36.191Z,52.08
2018-06-23T16:57:04.860Z,54.63
2018-06-23T16:59:33.539Z,55.43
2018-06-23T17:02:02.169Z,52.86
2018-06-23T17:04:30.865Z,55.33
2018-06-23T17:06:59.527Z,53.19
2018-06-23T17:09:28.234Z,53.12
2018-06-23T17:11:56.869Z,55.86
2018-06-23T17:14:25.588Z,56.73
2018-06-23T17:16:54.236Z,57.33
2018-06-23T17:19:23.097Z,57.73
2018-06-23T17:21:51.835Z,58.07
2018-06-23T17:24:20.539Z,58.20
2018-06-23T17:26:49.474Z,58.38
2018-06-23T17:29:18.250Z,58.39
2018-06-23T17:31:47.030Z,58.75
2018-06-23T17:34:15.765Z,59.13
2018-06-23T17:36:44.488Z,56.68
2018-06-23T17:39:13.213Z,58.74
2018-06-23T17:41:41.896Z,59.28
2018-06-23T17:44:10.617Z,56.89
2018-06-23T17:46:39.304Z,58.89
2018-06-23T17:49:07.974Z,59.23
2018-06-23T17:51:36.711Z,59.60
2018-06-23T17:54:05.379Z,59.79
2018-06-23T17:56:34.092Z,59.85
2018-06-23T17:59:02.796Z,57.52
2018-06-23T18:01:31.423Z,59.08
2018-06-23T18:04:00.104Z,59.59
2018-06-23T18:06:28.893Z,59.72
2018-06-23T18:09:00.026Z,59.80
2018-06-23T18:11:28.756Z,59.95
2018-06-23T18:13:58.840Z,60.04
2018-06-23T18:16:27.494Z,60.31
2018-06-23T18:18:56.196Z,60.37
2018-06-23T18:21:24.857Z,60.25
2018-06-23T18:23:53.540Z,58.30
2018-06-23T18:26:22.171Z,59.91
2018-06-23T18:28:50.869Z,60.37
2018-06-23T18:31:19.548Z,61.04
2018-06-23T18:33:48.267Z,61.47
2018-06-23T18:36:16.934Z,61.85
2018-06-23T18:38:45.654Z,61.91
2018-06-23T18:41:14.308Z,62.44
2018-06-23T18:43:43.151Z,62.45
2018-06-23T18:46:11.758Z,62.48
2018-06-23T18:48:40.468Z,62.63
2018-06-23T18:51:09.160Z,61.19
2018-06-23T18:53:37.915Z,62.47
2018-06-23T18:56:06.557Z,62.67
2018-06-23T18:58:35.307Z,62.97
2018-06-23T19:01:03.940Z,62.84
2018-06-23T19:03:32.700Z,62.93
2018-06-23T19:06:01.406Z,62.91
2018-06-23T19:08:30.081Z,62.89
2018-06-23T19:10:58.744Z,63.01
2018-06-23T19:13:27.467Z,62.95
2018-06-23T19:15:56.104Z,62.94
2018-06-23T19:18:24.781Z,62.93
2018-06-23T19:20:53.454Z,63.34
2018-06-23T19:23:22.125Z,61.45
2018-06-23T19:25:50.899Z,62.90
2018-06-23T19:28:19.542Z,63.38
2018-06-23T19:30:54.280Z,63.47
2018-06-23T19:33:23.379Z,63.48
2018-06-23T19:35:52.077Z,63.72
2018-06-23T19:38:20.720Z,63.58
2018-06-23T19:40:49.402Z,63.44
2018-06-23T19:43:18.100Z,63.67
2018-06-23T19:45:46.879Z,63.56
2018-06-23T19:48:15.545Z,63.83
2018-06-23T19:50:44.264Z,63.66
2018-06-23T19:53:12.942Z,63.66
2018-06-23T19:55:41.681Z,62.04
2018-06-23T19:58:10.367Z,63.43
2018-06-23T20:00:39.101Z,63.66
2018-06-23T20:03:07.902Z,61.75
2018-06-23T20:05:36.602Z,63.16
2018-06-23T20:08:05.423Z,63.60
2018-06-23T20:10:34.143Z,63.91
2018-06-23T20:13:02.809Z,64.13
2018-06-23T20:15:31.504Z,61.99
2018-06-23T20:18:00.171Z,63.62
2018-06-23T20:20:28.868Z,64.05
2018-06-23T20:22:57.531Z,64.23
2018-06-23T20:25:26.232Z,64.47
2018-06-23T20:27:54.954Z,62.64
2018-06-23T20:30:23.687Z,64.24
2018-06-23T20:32:52.380Z,64.62
2018-06-23T20:35:21.151Z,64.62
2018-06-23T20:37:49.808Z,65.02
2018-06-23T20:40:18.479Z,65.08
2018-06-23T20:42:47.151Z,63.23
2018-06-23T20:45:15.876Z,64.87
2018-06-23T20:47:44.552Z,65.30
2018-06-23T20:50:13.259Z,65.47
2018-06-23T20:52:44.399Z,65.44
2018-06-23T20:55:13.089Z,65.63
2018-06-23T20:57:41.782Z,65.87
2018-06-23T21:00:10.462Z,65.90
2018-06-23T21:02:39.123Z,65.98
2018-06-23T21:05:07.840Z,66.22
2018-06-23T21:07:36.500Z,66.11
2018-06-23T21:10:05.262Z,66.11
2018-06-23T21:12:33.954Z,66.27
2018-06-23T21:15:02.694Z,66.08
2018-06-23T21:17:31.452Z,66.22
2018-06-23T21:20:00.192Z,64.65
2018-06-23T21:22:28.989Z,65.72
2018-06-23T21:24:57.733Z,66.29
2018-06-23T21:27:26.409Z,66.29
2018-06-23T21:29:55.131Z,66.54
2018-06-23T21:32:23.796Z,66.41
2018-06-23T21:34:52.519Z,66.64
2018-06-23T21:37:21.178Z,66.45
2018-06-23T21:39:49.868Z,66.56
2018-06-23T21:42:18.563Z,66.67
2018-06-23T21:44:47.238Z,67.01
2018-06-23T21:47:15.933Z,67.07
2018-06-23T21:49:44.636Z,64.94
2018-06-23T21:52:13.305Z,64.28
2018-06-23T21:54:42.018Z,66.12
2018-06-23T21:57:10.678Z,64.41
2018-06-23T21:59:39.370Z,63.78
2018-06-23T22:02:08.007Z,65.63
2018-06-23T22:04:36.660Z,66.19
2018-06-23T22:07:05.370Z,66.44
2018-06-23T22:09:34.069Z,66.70
2018-06-23T22:12:02.770Z,66.73
2018-06-23T22:14:31.479Z,66.83
2018-06-23T22:17:00.163Z,64.76
2018-06-23T22:19:28.858Z,64.01
2018-06-23T22:21:57.548Z,65.75
2018-06-23T22:24:26.201Z,64.03
2018-06-23T22:26:54.892Z,65.80
2018-06-23T22:29:23.553Z,66.41
2018-06-23T22:31:52.319Z,66.61
2018-06-23T22:34:20.975Z,64.54
2018-06-23T22:36:49.705Z,66.02
2018-06-23T22:39:18.354Z,66.48
2018-06-23T22:41:47.085Z,66.76
2018-06-23T22:44:15.734Z,64.68
2018-06-23T22:46:44.389Z,66.22
2018-06-23T22:49:13.045Z,66.63
2018-06-23T22:51:41.706Z,67.12
2018-06-23T22:54:10.363Z,67.50
2018-06-23T22:56:39.053Z,65.47
2018-06-23T22:59:07.704Z,66.83
2018-06-23T23:01:36.594Z,67.55
2018-06-23T23:04:05.384Z,67.69
2018-06-23T23:06:34.213Z,67.79
2018-06-23T23:09:03.093Z,67.87
2018-06-23T23:11:31.714Z,68.14
2018-06-23T23:14:00.355Z,68.43
2018-06-23T23:16:29.107Z,68.97
2018-06-23T23:18:57.831Z,69.16
2018-06-23T23:21:26.585Z,69.35
2018-06-23T23:23:55.226Z,69.56
2018-06-23T23:26:23.916Z,69.80
2018-06-23T23:28:52.618Z,70.81
2018-06-23T23:31:21.349Z,70.76
2018-06-23T23:33:50.112Z,71.01
2018-06-23T23:36:18.779Z,71.11
2018-06-23T23:38:47.411Z,71.49
2018-06-23T23:41:16.134Z,71.96
2018-06-23T23:43:44.800Z,72.68
2018-06-23T23:46:13.524Z,71.10
2018-06-23T23:48:42.180Z,72.99
2018-06-23T23:51:10.871Z,73.63
2018-06-23T23:53:39.576Z,74.13
2018-06-23T23:56:08.618Z,74.66
2018-06-23T23:58:37.574Z,75.29
